Pagina principală
METAR-TAF:

METAR-TAF

Aeroporturi :

Koror, Babeldaob, Palau

Latitudine: 07-22N, longitudine: 134-32E, elevație: 54 m

Observații meteo curente

Raportul a fost făcut în urmă cu 31 de minute, la 10:50 UTC
Vânt 3 kt de la Nord/Nord-est
Temperatură 28°C
Umiditate 84%
Presiune 1010 hPa
Vizibilitate: 24.1 km
Nori împrăștiați la o înălțime de 1600 picior, Cumulus congestus.
Nori fragmentați la o înălțime de 12000 picior
Nori fragmentați la o înălțime de 30000 picior

METAR: PTRO 161050Z 03003KT 15SM SCT016TCU BKN120 BKN300 28/25 A2983 RMK TCU NE

Ora: 20:21 (11:21 UTC)

Prognoză

Raportul a fost făcut în urmă cu 6 ore și 1 de minute, la 05:20 UTC
Prognoză valabilă de la 16 ora 06 UTC la 17 ora 06 UTC
Vânt 6 kt de la Est
Vizibilitate: 10 km
Nori împrăștiați la o înălțime de 1600 picior
Nori împrăștiați la o înălțime de 12000 picior
averse în apropiere,

TAF: PTRO 160520Z 1606/1706 08006KT P6SM VCSH SCT016 SCT120

Observații și prognoze meteo pentru peste 4.000 de aeroporturi (rapoarte METAR și TAF).

Stațiile disponibile sunt reprezentate pe hartă prin puncte galbene și roșii.

Țineți indicatorul mouse-ului pe punctul dorit pentru a vedea denumirea stației.

Apoi, faceți clic pentru a vedea observațiile și prognozele meteorologice.

Pentru a schimba harta: Pentru mărire, faceți clic pe butoanele verzi cu cruce neagră; pentru micșorare, pe butonul verde cu o liniuță; pentru hărți învecinate, pe săgețile verzi.


METAR-TAF: